createdAt,value
2023-02-11T00:02:25.667Z,2.68
2023-02-11T00:04:52.375Z,2.72
2023-02-11T00:07:19.011Z,2.76
2023-02-11T00:09:45.643Z,2.74
2023-02-11T00:12:12.299Z,2.74
2023-02-11T00:14:38.976Z,2.73
2023-02-11T00:17:05.638Z,2.78
2023-02-11T00:19:32.314Z,2.84
2023-02-11T00:21:58.963Z,2.89
2023-02-11T00:24:25.641Z,2.88
2023-02-11T00:26:52.302Z,2.81
2023-02-11T00:29:19.002Z,2.87
2023-02-11T00:31:45.760Z,2.80
2023-02-11T00:34:12.485Z,2.72
2023-02-11T00:36:39.176Z,2.68
2023-02-11T00:39:05.809Z,2.68
2023-02-11T00:41:32.459Z,2.73
2023-02-11T00:43:59.238Z,2.73
2023-02-11T00:46:25.952Z,2.65
2023-02-11T00:48:52.687Z,2.68
2023-02-11T00:51:19.348Z,2.69
2023-02-11T00:53:46.041Z,2.68
2023-02-11T00:56:12.767Z,2.57
2023-02-11T00:58:39.428Z,2.55
2023-02-11T01:01:06.107Z,2.60
2023-02-11T01:03:32.800Z,2.54
2023-02-11T01:05:59.490Z,2.55
2023-02-11T01:08:26.237Z,2.55
2023-02-11T01:11:00.119Z,2.53
2023-02-11T01:13:27.057Z,2.49
2023-02-11T01:15:53.975Z,2.52
2023-02-11T01:18:20.763Z,2.58
2023-02-11T01:20:47.430Z,2.63
2023-02-11T01:23:14.095Z,2.62
2023-02-11T01:25:40.749Z,2.63
2023-02-11T01:28:07.465Z,2.71
2023-02-11T01:30:34.161Z,2.81
2023-02-11T01:33:00.816Z,2.81
2023-02-11T01:35:27.479Z,2.79
2023-02-11T01:37:54.123Z,2.80
2023-02-11T01:40:20.825Z,2.70
2023-02-11T01:42:49.996Z,2.62
2023-02-11T01:45:45.313Z,2.58
2023-02-11T01:48:16.007Z,2.56
2023-02-11T01:50:42.665Z,2.51
2023-02-11T01:53:09.327Z,2.46
2023-02-11T01:55:35.995Z,2.45
2023-02-11T01:58:02.873Z,2.55
2023-02-11T02:00:38.071Z,2.63
2023-02-11T02:03:13.230Z,2.62
2023-02-11T02:05:51.108Z,2.56
2023-02-11T02:08:27.114Z,2.53
2023-02-11T02:10:53.748Z,2.55
2023-02-11T02:13:20.494Z,2.47
2023-02-11T02:16:04.517Z,2.49
2023-02-11T02:18:37.160Z,2.53
2023-02-11T02:21:38.637Z,2.57
2023-02-11T02:24:38.543Z,2.63
2023-02-11T02:27:32.391Z,2.53
2023-02-11T02:30:27.090Z,2.48
2023-02-11T02:33:21.951Z,2.37
2023-02-11T02:36:13.108Z,2.37
2023-02-11T02:38:51.092Z,2.30
2023-02-11T02:41:19.358Z,2.42
2023-02-11T02:43:48.352Z,2.56
2023-02-11T02:46:21.234Z,2.54
2023-02-11T02:48:48.055Z,2.41
2023-02-11T02:51:39.845Z,2.35
2023-02-11T02:54:31.293Z,2.43
2023-02-11T02:57:36.818Z,2.29
2023-02-11T03:00:12.570Z,2.21
2023-02-11T03:03:05.393Z,2.20
2023-02-11T03:05:48.979Z,2.11
2023-02-11T03:08:34.354Z,2.03
2023-02-11T03:11:01.307Z,2.00
2023-02-11T03:13:30.022Z,1.98
2023-02-11T03:15:57.414Z,1.92
2023-02-11T03:18:26.221Z,1.91
2023-02-11T03:20:53.167Z,1.85
2023-02-11T03:23:34.959Z,1.84
2023-02-11T03:26:25.279Z,1.85
2023-02-11T03:28:56.064Z,1.85
2023-02-11T03:31:37.095Z,1.87
2023-02-11T03:34:31.484Z,1.88
2023-02-11T03:37:02.101Z,1.91
2023-02-11T03:39:44.697Z,1.85
2023-02-11T03:42:11.368Z,1.76
2023-02-11T03:44:41.952Z,1.78
2023-02-11T03:47:09.324Z,1.74
2023-02-11T03:49:36.124Z,1.68
2023-02-11T03:52:02.797Z,1.67
2023-02-11T03:54:30.282Z,1.66
2023-02-11T03:56:58.557Z,1.63
2023-02-11T03:59:25.438Z,1.69
2023-02-11T04:01:52.102Z,1.77
2023-02-11T04:04:18.782Z,1.84
2023-02-11T04:06:45.574Z,1.71
2023-02-11T04:09:12.347Z,1.67
2023-02-11T04:11:39.038Z,1.67
2023-02-11T04:14:05.680Z,1.64
2023-02-11T04:16:32.386Z,1.60
2023-02-11T04:18:59.152Z,1.55
2023-02-11T04:21:25.796Z,1.59
2023-02-11T04:23:52.486Z,1.59
2023-02-11T04:26:19.145Z,1.65
2023-02-11T04:28:45.778Z,1.60
2023-02-11T04:31:12.512Z,1.63
2023-02-11T04:33:39.203Z,1.63
2023-02-11T04:36:06.181Z,1.65
2023-02-11T04:38:32.816Z,1.66
2023-02-11T04:40:59.581Z,1.68
2023-02-11T04:43:26.302Z,1.62
2023-02-11T04:45:53.679Z,1.67
2023-02-11T04:48:20.501Z,1.69
2023-02-11T04:50:47.161Z,1.74
2023-02-11T04:53:13.811Z,1.83
2023-02-11T04:55:40.513Z,1.92
2023-02-11T04:58:07.179Z,1.70
2023-02-11T05:00:34.596Z,1.69
2023-02-11T05:03:01.372Z,1.62
2023-02-11T05:05:28.018Z,1.67
2023-02-11T05:07:54.672Z,1.71
2023-02-11T05:10:21.339Z,1.85
2023-02-11T05:12:48.779Z,1.76
2023-02-11T05:15:15.747Z,1.66
2023-02-11T05:17:42.416Z,1.74
2023-02-11T05:20:09.690Z,1.65
2023-02-11T05:22:36.390Z,1.61
2023-02-11T05:25:03.067Z,1.62
2023-02-11T05:27:29.719Z,1.61
2023-02-11T05:29:56.355Z,1.63
2023-02-11T05:32:23.051Z,1.68
2023-02-11T05:34:49.698Z,1.72
2023-02-11T05:37:16.819Z,1.74
2023-02-11T05:39:43.469Z,1.80
2023-02-11T05:42:10.172Z,1.86
2023-02-11T05:44:36.805Z,1.98
2023-02-11T05:47:03.555Z,1.93
2023-02-11T05:49:30.431Z,1.92
2023-02-11T05:51:57.467Z,1.87
2023-02-11T05:54:25.289Z,1.90
2023-02-11T05:56:51.948Z,1.86
2023-02-11T05:59:18.615Z,1.85
2023-02-11T06:01:45.251Z,1.82
2023-02-11T06:04:11.905Z,1.71
2023-02-11T06:06:38.644Z,1.62
2023-02-11T06:09:05.318Z,1.55
2023-02-11T06:11:32.009Z,1.51
2023-02-11T06:13:58.660Z,1.50
2023-02-11T06:16:25.766Z,1.49
2023-02-11T06:18:53.304Z,1.49
2023-02-11T06:21:21.936Z,1.47
2023-02-11T06:23:49.653Z,1.51
2023-02-11T06:26:22.283Z,1.54
2023-02-11T06:28:49.893Z,1.52
2023-02-11T06:31:17.622Z,1.52
2023-02-11T06:33:46.280Z,1.50
2023-02-11T06:36:16.011Z,1.53
2023-02-11T06:38:43.650Z,1.53
2023-02-11T06:41:14.014Z,1.52
2023-02-11T06:43:42.915Z,1.43
2023-02-11T06:46:09.666Z,1.40
2023-02-11T06:48:38.122Z,1.39
2023-02-11T06:51:06.725Z,1.30
2023-02-11T06:53:38.411Z,1.30
2023-02-11T06:56:06.002Z,1.30
2023-02-11T06:58:32.708Z,1.28
2023-02-11T07:01:00.194Z,1.26
2023-02-11T07:03:28.803Z,1.34
2023-02-11T07:05:56.393Z,1.44
2023-02-11T07:08:24.000Z,1.39
2023-02-11T07:10:51.581Z,1.41
2023-02-11T07:13:18.292Z,1.51
2023-02-11T07:15:45.872Z,1.53
2023-02-11T07:18:14.720Z,1.59
2023-02-11T07:20:41.956Z,1.55
2023-02-11T07:23:09.558Z,1.58
2023-02-11T07:25:37.154Z,1.60
2023-02-11T07:28:03.920Z,1.66
2023-02-11T07:30:30.597Z,1.63
2023-02-11T07:32:57.255Z,1.66
2023-02-11T07:35:23.884Z,1.66
2023-02-11T07:37:50.501Z,1.70
2023-02-11T07:40:17.139Z,1.72
2023-02-11T07:42:43.774Z,1.80
2023-02-11T07:45:10.436Z,1.87
2023-02-11T07:47:37.081Z,1.94
2023-02-11T07:50:03.719Z,2.04
2023-02-11T07:52:33.264Z,2.16
2023-02-11T07:54:59.916Z,2.31
2023-02-11T07:57:26.765Z,2.48
2023-02-11T07:59:53.488Z,2.70
2023-02-11T08:02:20.157Z,2.90
2023-02-11T08:04:47.046Z,3.06
2023-02-11T08:07:17.273Z,3.73
2023-02-11T08:09:43.956Z,4.67
2023-02-11T08:12:10.594Z,5.17
2023-02-11T08:14:37.302Z,5.28
2023-02-11T08:17:03.954Z,5.18
2023-02-11T08:19:30.690Z,5.32
2023-02-11T08:21:57.937Z,5.40
2023-02-11T08:24:24.581Z,5.37
2023-02-11T08:26:51.233Z,5.41
2023-02-11T08:29:17.872Z,5.47
2023-02-11T08:31:45.901Z,5.66
2023-02-11T08:34:12.903Z,5.89
2023-02-11T08:36:39.753Z,6.59
2023-02-11T08:39:18.592Z,8.84
2023-02-11T08:41:47.349Z,10.43
2023-02-11T08:44:14.041Z,9.79
2023-02-11T08:46:40.676Z,9.14
2023-02-11T08:49:07.420Z,8.60
2023-02-11T08:51:34.043Z,8.23
2023-02-11T08:54:00.675Z,8.02
2023-02-11T08:56:27.374Z,7.87
2023-02-11T08:58:54.491Z,9.08
2023-02-11T09:01:26.270Z,9.67
2023-02-11T09:03:53.015Z,9.62
2023-02-11T09:06:19.713Z,9.62
2023-02-11T09:08:47.901Z,9.47
2023-02-11T09:11:14.543Z,9.45
2023-02-11T09:13:41.936Z,9.63
2023-02-11T09:16:09.552Z,9.92
2023-02-11T09:18:36.471Z,10.88
2023-02-11T09:21:04.185Z,12.28
2023-02-11T09:23:30.850Z,13.33
2023-02-11T09:25:57.562Z,14.01
2023-02-11T09:28:24.248Z,15.02
2023-02-11T09:30:51.325Z,16.07
2023-02-11T09:33:18.161Z,16.70
2023-02-11T09:35:44.813Z,17.48
2023-02-11T09:38:11.440Z,18.28
2023-02-11T09:40:42.727Z,18.62
2023-02-11T09:43:19.420Z,18.80
2023-02-11T09:45:46.101Z,18.74
2023-02-11T09:48:17.731Z,18.75
2023-02-11T09:50:50.302Z,18.05
2023-02-11T09:53:27.541Z,16.87
2023-02-11T09:55:55.847Z,16.06
2023-02-11T09:58:27.873Z,15.09
2023-02-11T10:01:08.808Z,14.67
2023-02-11T10:03:35.375Z,14.59
2023-02-11T10:06:13.816Z,13.90
2023-02-11T10:09:02.136Z,13.11
2023-02-11T10:11:53.530Z,13.05
2023-02-11T10:14:29.871Z,12.71
2023-02-11T10:17:18.977Z,12.61
2023-02-11T10:19:54.613Z,12.42
2023-02-11T10:22:36.795Z,11.95
2023-02-11T10:25:16.473Z,11.59
2023-02-11T10:27:43.107Z,11.51
2023-02-11T10:30:18.668Z,11.26
2023-02-11T10:32:48.650Z,11.32
2023-02-11T10:35:20.254Z,11.26
2023-02-11T10:37:47.112Z,11.20
2023-02-11T10:40:17.900Z,11.23
2023-02-11T10:42:47.104Z,11.14
2023-02-11T10:45:31.836Z,11.15
2023-02-11T10:48:00.862Z,11.12
2023-02-11T10:50:31.484Z,11.11
2023-02-11T10:53:17.280Z,10.76
2023-02-11T10:55:57.789Z,10.59
2023-02-11T10:58:45.223Z,10.55
2023-02-11T11:01:23.846Z,10.60
2023-02-11T11:03:52.084Z,10.47
2023-02-11T11:06:31.478Z,10.24
2023-02-11T11:08:58.192Z,10.28
2023-02-11T11:11:25.357Z,10.16
2023-02-11T11:13:57.477Z,10.17
2023-02-11T11:16:32.767Z,10.24
2023-02-11T11:19:08.300Z,9.70
2023-02-11T11:21:45.051Z,9.67
2023-02-11T11:24:34.976Z,9.69
2023-02-11T11:27:02.655Z,9.68
2023-02-11T11:29:29.136Z,9.76
2023-02-11T11:32:03.439Z,9.73
2023-02-11T11:34:32.172Z,9.74
2023-02-11T11:36:59.617Z,9.80
2023-02-11T11:39:32.797Z,9.65
2023-02-11T11:42:24.127Z,9.58
2023-02-11T11:45:04.133Z,9.63
2023-02-11T11:47:53.533Z,9.49
2023-02-11T11:50:26.137Z,9.44
2023-02-11T11:53:00.264Z,9.48
2023-02-11T11:55:45.274Z,9.43
2023-02-11T11:58:21.969Z,9.36
2023-02-11T12:00:53.803Z,9.39
2023-02-11T12:03:44.545Z,9.41
2023-02-11T12:06:21.114Z,9.25
2023-02-11T12:09:02.381Z,9.33
2023-02-11T12:12:07.911Z,9.30
2023-02-11T12:15:04.305Z,9.23
2023-02-11T12:17:38.239Z,9.15
2023-02-11T12:20:16.945Z,9.17
2023-02-11T12:22:56.774Z,9.15
2023-02-11T12:25:46.761Z,9.05
2023-02-11T12:28:20.542Z,9.05
2023-02-11T12:31:21.790Z,9.07
2023-02-11T12:33:57.393Z,9.04
2023-02-11T12:36:23.890Z,8.87
2023-02-11T12:38:50.370Z,8.87
2023-02-11T12:41:32.685Z,8.94
2023-02-11T12:43:59.500Z,8.90
2023-02-11T12:46:43.242Z,8.79
2023-02-11T12:49:34.017Z,8.68
2023-02-11T12:52:08.355Z,8.72
2023-02-11T12:54:36.900Z,8.68
2023-02-11T12:57:03.946Z,8.72
2023-02-11T13:00:07.735Z,8.77
2023-02-11T13:02:36.610Z,8.83
2023-02-11T13:05:31.782Z,8.84
2023-02-11T13:08:12.645Z,8.84
2023-02-11T13:10:41.138Z,8.80
2023-02-11T13:13:37.258Z,8.90
2023-02-11T13:16:06.559Z,8.86
2023-02-11T13:18:54.040Z,8.92
2023-02-11T13:21:34.838Z,8.84
2023-02-11T13:24:07.973Z,8.78
2023-02-11T13:27:02.128Z,8.81
2023-02-11T13:29:50.507Z,8.80
2023-02-11T13:32:17.156Z,8.80
2023-02-11T13:34:43.674Z,8.81
2023-02-11T13:37:36.164Z,8.86
2023-02-11T13:40:10.167Z,8.75
2023-02-11T13:42:50.989Z,8.79
2023-02-11T13:45:18.698Z,8.82
2023-02-11T13:47:45.332Z,8.89
2023-02-11T13:50:21.863Z,8.89
2023-02-11T13:52:48.503Z,8.98
2023-02-11T13:55:21.280Z,9.08
2023-02-11T13:58:05.926Z,9.02
2023-02-11T14:00:35.391Z,9.02
2023-02-11T14:03:11.003Z,9.08
2023-02-11T14:05:37.666Z,9.03
2023-02-11T14:08:09.908Z,9.04
2023-02-11T14:10:42.455Z,9.12
2023-02-11T14:13:25.112Z,9.17
2023-02-11T14:16:06.911Z,9.17
2023-02-11T14:18:37.446Z,9.20
2023-02-11T14:21:11.491Z,9.37
2023-02-11T14:23:38.146Z,9.46
2023-02-11T14:26:20.132Z,9.54
2023-02-11T14:28:54.479Z,9.59
2023-02-11T14:31:26.453Z,9.63
2023-02-11T14:34:21.383Z,9.68
2023-02-11T14:36:54.894Z,9.67
2023-02-11T14:40:00.877Z,9.76
2023-02-11T14:42:28.045Z,9.69
2023-02-11T14:45:02.847Z,9.70
2023-02-11T14:47:34.482Z,9.67
2023-02-11T14:50:01.123Z,9.68
2023-02-11T14:52:29.469Z,9.62
2023-02-11T14:55:17.788Z,9.66
2023-02-11T14:57:44.666Z,9.58
2023-02-11T15:00:16.560Z,9.62
2023-02-11T15:02:43.443Z,9.62
2023-02-11T15:05:21.913Z,9.59
2023-02-11T15:07:50.459Z,9.57
2023-02-11T15:10:19.074Z,9.49
2023-02-11T15:12:45.837Z,9.49
2023-02-11T15:15:12.488Z,9.45
2023-02-11T15:17:39.140Z,9.47
2023-02-11T15:20:06.597Z,9.43
2023-02-11T15:22:33.757Z,9.32
2023-02-11T15:25:08.743Z,9.24
2023-02-11T15:27:44.379Z,9.24
2023-02-11T15:30:23.929Z,9.28
2023-02-11T15:32:51.236Z,9.24
2023-02-11T15:35:18.158Z,9.21
2023-02-11T15:37:44.878Z,9.21
2023-02-11T15:40:12.362Z,9.18
2023-02-11T15:42:52.132Z,9.11
2023-02-11T15:45:19.588Z,8.95
2023-02-11T15:47:51.113Z,8.93
2023-02-11T15:50:31.641Z,8.82
2023-02-11T15:53:00.498Z,8.77
2023-02-11T15:55:27.148Z,8.65
2023-02-11T15:57:55.341Z,8.57
2023-02-11T16:00:23.833Z,8.48
2023-02-11T16:02:50.479Z,8.45
2023-02-11T16:05:31.817Z,8.39
2023-02-11T16:07:58.738Z,8.30
2023-02-11T16:10:29.355Z,8.19
2023-02-11T16:13:05.769Z,8.17
2023-02-11T16:15:35.282Z,8.14
2023-02-11T16:18:02.471Z,8.07
2023-02-11T16:20:29.130Z,8.07
2023-02-11T16:22:55.776Z,7.95
2023-02-11T16:25:23.228Z,7.96
2023-02-11T16:27:51.723Z,7.91
2023-02-11T16:30:23.820Z,7.87
2023-02-11T16:32:50.475Z,7.76
2023-02-11T16:35:17.177Z,7.67
2023-02-11T16:37:43.818Z,7.64
2023-02-11T16:40:11.849Z,7.56
2023-02-11T16:42:38.496Z,7.54
2023-02-11T16:45:06.700Z,7.45
2023-02-11T16:47:35.434Z,7.34
2023-02-11T16:50:02.268Z,7.28
2023-02-11T16:52:28.953Z,7.18
2023-02-11T16:54:55.607Z,7.35
2023-02-11T16:57:23.611Z,7.28
2023-02-11T16:59:50.335Z,7.23
2023-02-11T17:02:22.860Z,7.23
2023-02-11T17:04:50.567Z,7.01
2023-02-11T17:07:17.323Z,6.91
2023-02-11T17:09:44.704Z,6.81
2023-02-11T17:12:11.361Z,6.78
2023-02-11T17:14:38.022Z,6.76
2023-02-11T17:17:04.669Z,6.73
2023-02-11T17:19:31.336Z,6.64
2023-02-11T17:21:58.035Z,6.57
2023-02-11T17:24:24.669Z,6.50
2023-02-11T17:26:51.311Z,6.45
2023-02-11T17:29:22.516Z,6.42
2023-02-11T17:31:49.474Z,6.37
2023-02-11T17:34:16.554Z,6.26
2023-02-11T17:36:43.214Z,6.23
2023-02-11T17:39:09.861Z,6.18
2023-02-11T17:41:37.151Z,6.12
2023-02-11T17:44:04.038Z,6.02
2023-02-11T17:46:30.724Z,5.98
2023-02-11T17:48:58.240Z,5.93
2023-02-11T17:51:27.774Z,5.89
2023-02-11T17:53:54.444Z,5.85
2023-02-11T17:56:21.084Z,5.85
2023-02-11T17:58:47.781Z,5.83
2023-02-11T18:01:14.496Z,5.79
2023-02-11T18:03:41.199Z,5.80
2023-02-11T18:06:07.940Z,5.77
2023-02-11T18:08:34.893Z,5.71
2023-02-11T18:11:01.561Z,5.70
2023-02-11T18:13:28.289Z,5.72
2023-02-11T18:15:55.099Z,5.71
2023-02-11T18:18:21.761Z,5.71
2023-02-11T18:20:58.636Z,5.69
2023-02-11T18:23:25.477Z,5.68
2023-02-11T18:25:52.510Z,5.64
2023-02-11T18:28:19.374Z,5.67
2023-02-11T18:30:46.062Z,5.66
2023-02-11T18:33:12.749Z,5.69
2023-02-11T18:35:39.649Z,5.80
2023-02-11T18:38:06.322Z,5.78
2023-02-11T18:40:34.030Z,5.77
2023-02-11T18:43:00.654Z,5.75
2023-02-11T18:45:27.344Z,5.76
2023-02-11T18:47:54.107Z,5.73
2023-02-11T18:50:20.754Z,5.58
2023-02-11T18:52:47.790Z,5.55
2023-02-11T18:55:14.606Z,5.49
2023-02-11T18:57:41.260Z,5.45
2023-02-11T19:00:08.528Z,5.46
2023-02-11T19:02:35.407Z,5.42
2023-02-11T19:05:02.486Z,5.45
2023-02-11T19:07:29.410Z,5.46
2023-02-11T19:09:56.110Z,5.37
2023-02-11T19:12:22.780Z,5.39
2023-02-11T19:14:49.453Z,5.40
2023-02-11T19:17:16.101Z,5.37
2023-02-11T19:19:42.751Z,5.38
2023-02-11T19:22:10.804Z,5.41
2023-02-11T19:24:37.620Z,5.34
2023-02-11T19:27:04.360Z,5.33
2023-02-11T19:29:30.995Z,5.29
2023-02-11T19:31:57.715Z,5.26
2023-02-11T19:34:24.477Z,5.27
2023-02-11T19:36:51.145Z,5.26
2023-02-11T19:39:17.786Z,5.48
2023-02-11T19:41:44.499Z,5.51
2023-02-11T19:44:11.164Z,5.43
2023-02-11T19:46:38.479Z,5.31
2023-02-11T19:49:05.316Z,5.34
2023-02-11T19:51:31.965Z,5.27
2023-02-11T19:53:58.651Z,5.26
2023-02-11T19:56:25.523Z,5.15
2023-02-11T19:58:52.217Z,5.14
2023-02-11T20:01:19.913Z,5.16
2023-02-11T20:03:50.048Z,5.15
2023-02-11T20:06:20.459Z,5.25
2023-02-11T20:08:47.127Z,5.19
2023-02-11T20:11:16.524Z,5.15
2023-02-11T20:13:43.219Z,5.08
2023-02-11T20:16:12.027Z,4.96
2023-02-11T20:18:39.310Z,4.88
2023-02-11T20:21:07.594Z,4.85
2023-02-11T20:23:34.578Z,4.86
2023-02-11T20:26:12.805Z,4.89
2023-02-11T20:28:39.485Z,4.91
2023-02-11T20:31:06.398Z,4.93
2023-02-11T20:33:33.226Z,4.91
2023-02-11T20:36:01.723Z,4.86
2023-02-11T20:38:28.379Z,4.82
2023-02-11T20:40:55.103Z,4.86
2023-02-11T20:43:21.924Z,4.80
2023-02-11T20:45:48.622Z,4.79
2023-02-11T20:48:15.276Z,4.73
2023-02-11T20:50:41.948Z,4.66
2023-02-11T20:53:08.589Z,4.67
2023-02-11T20:55:37.466Z,4.66
2023-02-11T20:58:05.405Z,4.69
2023-02-11T21:00:32.060Z,4.66
2023-02-11T21:02:58.779Z,4.60
2023-02-11T21:05:25.457Z,4.63
2023-02-11T21:07:53.127Z,4.64
2023-02-11T21:10:19.850Z,4.56
2023-02-11T21:12:49.533Z,4.55
2023-02-11T21:15:16.533Z,4.56
2023-02-11T21:17:43.237Z,4.54
2023-02-11T21:20:10.244Z,4.53
2023-02-11T21:22:36.942Z,4.49
2023-02-11T21:25:03.716Z,4.49
2023-02-11T21:27:30.395Z,4.46
2023-02-11T21:29:57.067Z,4.54
2023-02-11T21:32:23.835Z,4.57
2023-02-11T21:34:50.558Z,4.56
2023-02-11T21:37:17.207Z,4.60
2023-02-11T21:39:43.862Z,4.58
2023-02-11T21:42:10.643Z,4.57
2023-02-11T21:44:37.324Z,4.50
2023-02-11T21:47:04.019Z,4.52
2023-02-11T21:49:30.717Z,4.50
2023-02-11T21:51:57.420Z,4.41
2023-02-11T21:54:24.165Z,4.40
2023-02-11T21:56:50.846Z,4.31
2023-02-11T21:59:17.501Z,4.27
2023-02-11T22:01:44.991Z,4.33
2023-02-11T22:04:11.859Z,4.24
2023-02-11T22:06:38.575Z,4.25
2023-02-11T22:09:06.525Z,4.26
2023-02-11T22:11:33.248Z,4.29
2023-02-11T22:13:59.931Z,4.32
2023-02-11T22:16:27.073Z,4.37
2023-02-11T22:18:53.821Z,4.28
2023-02-11T22:21:21.849Z,4.25
2023-02-11T22:23:48.672Z,4.18
2023-02-11T22:26:17.041Z,4.08
2023-02-11T22:28:43.780Z,4.02
2023-02-11T22:31:15.138Z,4.11
2023-02-11T22:33:41.866Z,4.25
2023-02-11T22:36:12.583Z,4.25
2023-02-11T22:38:39.242Z,4.17
2023-02-11T22:41:07.087Z,4.17
2023-02-11T22:43:33.754Z,4.21
2023-02-11T22:46:01.332Z,4.43
2023-02-11T22:48:28.023Z,4.38
2023-02-11T22:50:54.689Z,4.28
2023-02-11T22:53:21.338Z,4.20
2023-02-11T22:55:48.088Z,4.24
2023-02-11T22:58:14.720Z,4.18
2023-02-11T23:00:41.386Z,4.21
2023-02-11T23:03:08.175Z,4.24
2023-02-11T23:05:41.252Z,4.28
2023-02-11T23:08:08.718Z,4.21
2023-02-11T23:10:36.200Z,4.18
2023-02-11T23:13:03.560Z,4.13
2023-02-11T23:15:30.258Z,4.10
2023-02-11T23:17:56.932Z,4.08
2023-02-11T23:20:23.613Z,4.14
2023-02-11T23:22:50.251Z,4.11
2023-02-11T23:25:16.905Z,4.00
2023-02-11T23:27:43.576Z,3.97
2023-02-11T23:30:10.621Z,3.90
2023-02-11T23:32:40.022Z,3.88
2023-02-11T23:35:06.698Z,3.83
2023-02-11T23:37:33.375Z,4.02
2023-02-11T23:40:00.004Z,3.98
2023-02-11T23:42:26.643Z,3.89
2023-02-11T23:44:53.307Z,3.89
2023-02-11T23:47:19.948Z,3.87
2023-02-11T23:49:46.602Z,3.87
2023-02-11T23:52:13.249Z,3.86
2023-02-11T23:54:40.023Z,3.92
2023-02-11T23:57:06.696Z,3.91
2023-02-11T23:59:33.365Z,3.83
